イエローナイフ の空港の天気 - METARとTAF

イエローナイフ空港 ( CYZF / YZF ) - カナダ ノースウエスト準州イエローナイフ
飛行場実況気象(Metar)
観測時間04/25 02:00 MDT (04/25 08:00 UTC)
風向・風速北北東 4m/s
視程10km以上
天気現象弱い雪
全天の4割程度の雲 雲底高度 1010m
全天を覆う雲 雲底高度 1710m
気温-8℃
湿度79%
気圧1021hPa
METARCYZF 250800Z 03007KT 15SM -SN SCT033 OVC056 M08/M11 A3009 RMK SC4SC4 SLP210
過去の天気等 Google飛行場航空写真 Wunderground天気予報

過去48時間のMETAR

飛行場予報(TAF)
発表時間: 4/24 23:38 MDT (4/25 05:38 UTC)
予報対象時間: 25日0時 MDT ~ 26日0時 MDT
風向・風速北東 3m/s
視程10km以上
全天の4割程度の雲 雲底高度 610m
全天の8割程度の雲 雲底高度 1220m
25日0時 MDT ~ 25日16時 MDT に一時的に
視程6440m
天気現象弱い雪
全天の8割程度の雲 雲底高度 610m
全天を覆う雲 雲底高度 1220m
25日2時 MDT ~ 25日4時 MDT に徐々に
風向・風速不定 2m/s
25日16時 MDT から
風向・風速北 5m/s
視程10km以上
全天の8割程度の雲 雲底高度 1830m
TAF CYZF 250538Z 2506/2606 04006KT P6SM SCT020 BKN040
TEMPO 2506/2522 4SM -SN BKN020 OVC040
BECMG 2508/2510 VRB03KT
FM252200 35010KT P6SM BKN060 RMK NXT FCST BY 251200Z